sensor_id;sensor_type;location;lat;lon;timestamp;P1;durP1;ratioP1;P2;durP2;ratioP2
50443;SDS011;36370;52.216;21.142;2022-10-16T00:00:12;27.92;;;18.30;;
50443;SDS011;36370;52.216;21.142;2022-10-16T00:04:34;27.67;;;18.55;;
50443;SDS011;36370;52.216;21.142;2022-10-16T00:08:36;30.35;;;20.73;;
50443;SDS011;36370;52.216;21.142;2022-10-16T00:12:38;32.78;;;21.02;;
50443;SDS011;36370;52.216;21.142;2022-10-16T00:16:40;34.15;;;21.35;;
50443;SDS011;36370;52.216;21.142;2022-10-16T00:20:42;36.47;;;22.10;;
50443;SDS011;36370;52.216;21.142;2022-10-16T00:24:45;33.28;;;22.15;;
50443;SDS011;36370;52.216;21.142;2022-10-16T00:28:47;36.90;;;23.70;;
50443;SDS011;36370;52.216;21.142;2022-10-16T00:32:50;42.65;;;24.00;;
50443;SDS011;36370;52.216;21.142;2022-10-16T00:36:52;37.40;;;24.40;;
50443;SDS011;36370;52.216;21.142;2022-10-16T00:40:54;39.90;;;24.63;;
50443;SDS011;36370;52.216;21.142;2022-10-16T00:44:56;39.08;;;24.15;;
50443;SDS011;36370;52.216;21.142;2022-10-16T00:53:14;45.70;;;27.42;;
50443;SDS011;36370;52.216;21.142;2022-10-16T00:57:16;41.83;;;25.55;;
50443;SDS011;36370;52.216;21.142;2022-10-16T01:01:18;44.92;;;27.77;;
50443;SDS011;36370;52.216;21.142;2022-10-16T01:05:21;44.05;;;26.92;;
50443;SDS011;36370;52.216;21.142;2022-10-16T01:13:41;41.00;;;25.10;;
50443;SDS011;36370;52.216;21.142;2022-10-16T01:17:58;42.17;;;26.50;;
50443;SDS011;36370;52.216;21.142;2022-10-16T01:22:07;45.10;;;26.08;;
50443;SDS011;36370;52.216;21.142;2022-10-16T01:30:26;47.30;;;27.40;;
50443;SDS011;36370;52.216;21.142;2022-10-16T01:34:32;50.60;;;29.27;;
50443;SDS011;36370;52.216;21.142;2022-10-16T01:38:49;44.95;;;28.02;;
50443;SDS011;36370;52.216;21.142;2022-10-16T01:42:59;43.58;;;28.50;;
50443;SDS011;36370;52.216;21.142;2022-10-16T01:47:04;47.08;;;28.17;;
50443;SDS011;36370;52.216;21.142;2022-10-16T01:51:11;39.72;;;26.05;;
50443;SDS011;36370;52.216;21.142;2022-10-16T01:55:16;45.60;;;28.58;;
50443;SDS011;36370;52.216;21.142;2022-10-16T01:59:23;46.63;;;29.38;;
50443;SDS011;36370;52.216;21.142;2022-10-16T02:03:29;45.97;;;27.42;;
50443;SDS011;36370;52.216;21.142;2022-10-16T02:07:33;45.10;;;27.27;;
50443;SDS011;36370;52.216;21.142;2022-10-16T02:11:35;45.00;;;29.30;;
50443;SDS011;36370;52.216;21.142;2022-10-16T02:15:37;43.83;;;29.75;;
50443;SDS011;36370;52.216;21.142;2022-10-16T02:19:39;47.03;;;30.08;;
50443;SDS011;36370;52.216;21.142;2022-10-16T02:23:49;45.95;;;30.60;;
50443;SDS011;36370;52.216;21.142;2022-10-16T02:28:09;48.83;;;29.38;;
50443;SDS011;36370;52.216;21.142;2022-10-16T02:32:23;51.17;;;29.90;;
50443;SDS011;36370;52.216;21.142;2022-10-16T02:36:28;48.15;;;29.92;;
50443;SDS011;36370;52.216;21.142;2022-10-16T02:40:31;44.00;;;28.38;;
50443;SDS011;36370;52.216;21.142;2022-10-16T02:44:33;44.75;;;30.15;;
50443;SDS011;36370;52.216;21.142;2022-10-16T02:48:35;46.88;;;29.63;;
50443;SDS011;36370;52.216;21.142;2022-10-16T02:52:37;49.50;;;30.70;;
50443;SDS011;36370;52.216;21.142;2022-10-16T02:56:39;51.72;;;30.08;;
50443;SDS011;36370;52.216;21.142;2022-10-16T03:00:41;41.47;;;28.33;;
50443;SDS011;36370;52.216;21.142;2022-10-16T03:04:43;46.65;;;30.88;;
50443;SDS011;36370;52.216;21.142;2022-10-16T03:08:45;43.75;;;27.77;;
50443;SDS011;36370;52.216;21.142;2022-10-16T03:12:47;48.25;;;30.08;;
50443;SDS011;36370;52.216;21.142;2022-10-16T03:16:49;44.72;;;28.70;;
50443;SDS011;36370;52.216;21.142;2022-10-16T03:20:51;35.42;;;26.15;;
50443;SDS011;36370;52.216;21.142;2022-10-16T03:24:53;41.45;;;28.17;;
50443;SDS011;36370;52.216;21.142;2022-10-16T03:28:55;43.45;;;26.70;;
50443;SDS011;36370;52.216;21.142;2022-10-16T03:32:57;41.55;;;27.02;;
50443;SDS011;36370;52.216;21.142;2022-10-16T03:36:58;43.65;;;26.00;;
50443;SDS011;36370;52.216;21.142;2022-10-16T03:41:00;43.75;;;26.67;;
50443;SDS011;36370;52.216;21.142;2022-10-16T03:45:02;41.50;;;27.15;;
50443;SDS011;36370;52.216;21.142;2022-10-16T03:49:05;38.00;;;25.67;;
50443;SDS011;36370;52.216;21.142;2022-10-16T03:53:10;39.03;;;25.20;;
50443;SDS011;36370;52.216;21.142;2022-10-16T03:57:12;42.38;;;26.25;;
50443;SDS011;36370;52.216;21.142;2022-10-16T04:01:13;40.28;;;26.65;;
50443;SDS011;36370;52.216;21.142;2022-10-16T04:05:15;39.17;;;26.13;;
50443;SDS011;36370;52.216;21.142;2022-10-16T04:09:17;37.70;;;25.63;;
50443;SDS011;36370;52.216;21.142;2022-10-16T04:13:19;40.80;;;24.85;;
50443;SDS011;36370;52.216;21.142;2022-10-16T04:17:21;39.00;;;23.83;;
50443;SDS011;36370;52.216;21.142;2022-10-16T04:21:23;39.13;;;25.15;;
50443;SDS011;36370;52.216;21.142;2022-10-16T04:25:25;40.70;;;26.33;;
50443;SDS011;36370;52.216;21.142;2022-10-16T04:29:27;42.08;;;26.60;;
50443;SDS011;36370;52.216;21.142;2022-10-16T04:33:29;40.95;;;26.60;;
50443;SDS011;36370;52.216;21.142;2022-10-16T04:37:30;42.80;;;27.52;;
50443;SDS011;36370;52.216;21.142;2022-10-16T04:41:32;42.10;;;26.70;;
50443;SDS011;36370;52.216;21.142;2022-10-16T04:45:34;44.88;;;28.45;;
50443;SDS011;36370;52.216;21.142;2022-10-16T04:49:36;40.47;;;26.88;;
50443;SDS011;36370;52.216;21.142;2022-10-16T04:53:38;40.70;;;27.67;;
50443;SDS011;36370;52.216;21.142;2022-10-16T04:57:40;44.42;;;26.80;;
50443;SDS011;36370;52.216;21.142;2022-10-16T05:01:42;43.08;;;26.17;;
50443;SDS011;36370;52.216;21.142;2022-10-16T05:05:44;39.95;;;26.30;;
50443;SDS011;36370;52.216;21.142;2022-10-16T05:09:46;37.92;;;26.20;;
50443;SDS011;36370;52.216;21.142;2022-10-16T05:13:48;37.92;;;24.33;;
50443;SDS011;36370;52.216;21.142;2022-10-16T05:17:55;40.20;;;27.08;;
50443;SDS011;36370;52.216;21.142;2022-10-16T05:21:57;36.45;;;26.23;;
50443;SDS011;36370;52.216;21.142;2022-10-16T05:25:59;36.72;;;25.88;;
50443;SDS011;36370;52.216;21.142;2022-10-16T05:30:01;40.33;;;26.40;;
50443;SDS011;36370;52.216;21.142;2022-10-16T05:34:06;40.78;;;24.95;;
50443;SDS011;36370;52.216;21.142;2022-10-16T05:38:08;44.90;;;26.17;;
50443;SDS011;36370;52.216;21.142;2022-10-16T05:42:10;35.03;;;23.33;;
50443;SDS011;36370;52.216;21.142;2022-10-16T05:46:12;38.50;;;25.35;;
50443;SDS011;36370;52.216;21.142;2022-10-16T05:50:15;37.05;;;25.10;;
50443;SDS011;36370;52.216;21.142;2022-10-16T05:54:17;34.38;;;24.33;;
50443;SDS011;36370;52.216;21.142;2022-10-16T05:58:18;35.85;;;24.33;;
50443;SDS011;36370;52.216;21.142;2022-10-16T06:02:20;37.10;;;25.38;;
50443;SDS011;36370;52.216;21.142;2022-10-16T06:06:24;33.33;;;24.45;;
50443;SDS011;36370;52.216;21.142;2022-10-16T06:10:27;41.65;;;25.10;;
50443;SDS011;36370;52.216;21.142;2022-10-16T06:14:30;41.00;;;25.88;;
50443;SDS011;36370;52.216;21.142;2022-10-16T06:18:32;40.45;;;24.70;;
50443;SDS011;36370;52.216;21.142;2022-10-16T06:22:34;38.50;;;24.30;;
50443;SDS011;36370;52.216;21.142;2022-10-16T06:26:36;35.20;;;23.92;;
50443;SDS011;36370;52.216;21.142;2022-10-16T06:30:38;37.97;;;24.80;;
50443;SDS011;36370;52.216;21.142;2022-10-16T06:34:40;32.45;;;21.63;;
50443;SDS011;36370;52.216;21.142;2022-10-16T06:38:44;31.17;;;22.38;;
50443;SDS011;36370;52.216;21.142;2022-10-16T06:42:46;34.35;;;21.38;;
50443;SDS011;36370;52.216;21.142;2022-10-16T06:46:48;32.72;;;21.92;;
50443;SDS011;36370;52.216;21.142;2022-10-16T06:51:00;31.75;;;21.55;;
50443;SDS011;36370;52.216;21.142;2022-10-16T06:55:03;32.13;;;20.83;;
50443;SDS011;36370;52.216;21.142;2022-10-16T06:59:05;31.00;;;20.15;;
50443;SDS011;36370;52.216;21.142;2022-10-16T07:03:06;29.55;;;19.98;;
50443;SDS011;36370;52.216;21.142;2022-10-16T07:07:08;31.02;;;21.73;;
50443;SDS011;36370;52.216;21.142;2022-10-16T07:11:11;34.13;;;21.33;;
50443;SDS011;36370;52.216;21.142;2022-10-16T07:15:14;31.33;;;19.75;;
50443;SDS011;36370;52.216;21.142;2022-10-16T07:19:16;34.28;;;20.95;;
50443;SDS011;36370;52.216;21.142;2022-10-16T07:23:19;35.70;;;20.05;;
50443;SDS011;36370;52.216;21.142;2022-10-16T07:27:21;28.83;;;19.05;;
50443;SDS011;36370;52.216;21.142;2022-10-16T07:31:25;33.13;;;19.55;;
50443;SDS011;36370;52.216;21.142;2022-10-16T07:35:28;26.23;;;17.88;;
50443;SDS011;36370;52.216;21.142;2022-10-16T07:39:29;31.10;;;19.48;;
50443;SDS011;36370;52.216;21.142;2022-10-16T07:43:31;25.25;;;18.63;;
50443;SDS011;36370;52.216;21.142;2022-10-16T07:47:33;28.25;;;18.65;;
50443;SDS011;36370;52.216;21.142;2022-10-16T07:51:35;27.15;;;18.40;;
50443;SDS011;36370;52.216;21.142;2022-10-16T07:55:37;32.63;;;18.83;;
50443;SDS011;36370;52.216;21.142;2022-10-16T07:59:39;26.48;;;16.65;;
50443;SDS011;36370;52.216;21.142;2022-10-16T08:03:42;26.83;;;17.85;;
50443;SDS011;36370;52.216;21.142;2022-10-16T08:07:48;26.08;;;17.52;;
50443;SDS011;36370;52.216;21.142;2022-10-16T08:11:51;27.00;;;16.92;;
50443;SDS011;36370;52.216;21.142;2022-10-16T08:15:54;23.50;;;16.13;;
50443;SDS011;36370;52.216;21.142;2022-10-16T08:19:56;21.05;;;14.63;;
50443;SDS011;36370;52.216;21.142;2022-10-16T08:23:59;24.13;;;15.52;;
50443;SDS011;36370;52.216;21.142;2022-10-16T08:28:05;23.48;;;15.55;;
50443;SDS011;36370;52.216;21.142;2022-10-16T08:32:08;27.25;;;16.08;;
50443;SDS011;36370;52.216;21.142;2022-10-16T08:36:10;20.30;;;13.75;;
50443;SDS011;36370;52.216;21.142;2022-10-16T08:40:20;20.27;;;14.18;;
50443;SDS011;36370;52.216;21.142;2022-10-16T08:44:40;26.48;;;14.13;;
50443;SDS011;36370;52.216;21.142;2022-10-16T08:48:54;25.70;;;14.55;;
50443;SDS011;36370;52.216;21.142;2022-10-16T08:52:58;22.08;;;14.07;;
50443;SDS011;36370;52.216;21.142;2022-10-16T08:57:06;20.20;;;14.15;;
50443;SDS011;36370;52.216;21.142;2022-10-16T09:01:12;23.85;;;15.27;;
50443;SDS011;36370;52.216;21.142;2022-10-16T09:05:24;22.92;;;15.65;;
50443;SDS011;36370;52.216;21.142;2022-10-16T09:10:06;22.30;;;13.82;;
50443;SDS011;36370;52.216;21.142;2022-10-16T09:18:54;23.88;;;14.02;;
50443;SDS011;36370;52.216;21.142;2022-10-16T09:27:12;22.70;;;15.68;;
50443;SDS011;36370;52.216;21.142;2022-10-16T09:31:16;23.13;;;14.35;;
50443;SDS011;36370;52.216;21.142;2022-10-16T09:35:31;22.13;;;14.20;;
50443;SDS011;36370;52.216;21.142;2022-10-16T09:39:47;20.45;;;12.98;;
50443;SDS011;36370;52.216;21.142;2022-10-16T09:48:01;18.95;;;13.23;;
50443;SDS011;36370;52.216;21.142;2022-10-16T09:52:12;19.23;;;12.80;;
50443;SDS011;36370;52.216;21.142;2022-10-16T09:56:25;21.92;;;12.95;;
50443;SDS011;36370;52.216;21.142;2022-10-16T10:00:29;22.05;;;12.80;;
50443;SDS011;36370;52.216;21.142;2022-10-16T10:04:38;19.40;;;11.55;;
50443;SDS011;36370;52.216;21.142;2022-10-16T10:08:56;19.60;;;12.70;;
50443;SDS011;36370;52.216;21.142;2022-10-16T10:13:00;23.75;;;12.95;;
50443;SDS011;36370;52.216;21.142;2022-10-16T10:21:12;24.02;;;13.38;;
50443;SDS011;36370;52.216;21.142;2022-10-16T10:34:21;21.48;;;12.52;;
50443;SDS011;36370;52.216;21.142;2022-10-16T10:38:47;20.85;;;13.32;;
50443;SDS011;36370;52.216;21.142;2022-10-16T10:42:59;18.13;;;12.68;;
50443;SDS011;36370;52.216;21.142;2022-10-16T10:51:52;20.58;;;12.50;;
50443;SDS011;36370;52.216;21.142;2022-10-16T11:00:50;22.23;;;11.60;;
50443;SDS011;36370;52.216;21.142;2022-10-16T11:09:08;20.67;;;11.63;;
50443;SDS011;36370;52.216;21.142;2022-10-16T11:13:35;20.08;;;11.02;;
50443;SDS011;36370;52.216;21.142;2022-10-16T11:17:48;15.50;;;11.27;;
50443;SDS011;36370;52.216;21.142;2022-10-16T11:21:59;15.77;;;11.90;;
50443;SDS011;36370;52.216;21.142;2022-10-16T11:26:08;17.77;;;11.82;;
50443;SDS011;36370;52.216;21.142;2022-10-16T11:30:29;15.25;;;11.40;;
50443;SDS011;36370;52.216;21.142;2022-10-16T11:34:36;16.75;;;11.20;;
50443;SDS011;36370;52.216;21.142;2022-10-16T11:38:58;15.35;;;10.02;;
50443;SDS011;36370;52.216;21.142;2022-10-16T11:43:24;16.45;;;9.52;;
50443;SDS011;36370;52.216;21.142;2022-10-16T11:47:48;13.10;;;10.15;;
50443;SDS011;36370;52.216;21.142;2022-10-16T11:52:20;16.80;;;9.27;;
50443;SDS011;36370;52.216;21.142;2022-10-16T11:56:27;14.07;;;9.68;;
50443;SDS011;36370;52.216;21.142;2022-10-16T12:00:41;12.95;;;9.07;;
50443;SDS011;36370;52.216;21.142;2022-10-16T12:05:17;18.55;;;9.77;;
50443;SDS011;36370;52.216;21.142;2022-10-16T12:09:26;15.82;;;9.75;;
50443;SDS011;36370;52.216;21.142;2022-10-16T12:13:31;17.23;;;10.10;;
50443;SDS011;36370;52.216;21.142;2022-10-16T12:17:41;17.83;;;10.20;;
50443;SDS011;36370;52.216;21.142;2022-10-16T12:21:43;15.15;;;9.90;;
50443;SDS011;36370;52.216;21.142;2022-10-16T12:25:53;16.95;;;10.85;;
50443;SDS011;36370;52.216;21.142;2022-10-16T12:29:57;16.10;;;11.48;;
50443;SDS011;36370;52.216;21.142;2022-10-16T12:34:02;17.77;;;10.93;;
50443;SDS011;36370;52.216;21.142;2022-10-16T12:38:05;12.27;;;9.23;;
50443;SDS011;36370;52.216;21.142;2022-10-16T12:54:38;17.80;;;10.07;;
50443;SDS011;36370;52.216;21.142;2022-10-16T12:58:46;13.57;;;9.50;;
50443;SDS011;36370;52.216;21.142;2022-10-16T13:16:21;16.77;;;10.40;;
50443;SDS011;36370;52.216;21.142;2022-10-16T13:24:42;15.75;;;9.98;;
50443;SDS011;36370;52.216;21.142;2022-10-16T13:28:53;15.25;;;10.38;;
50443;SDS011;36370;52.216;21.142;2022-10-16T13:33:02;16.70;;;10.77;;
50443;SDS011;36370;52.216;21.142;2022-10-16T13:37:31;16.70;;;9.35;;
50443;SDS011;36370;52.216;21.142;2022-10-16T13:41:33;17.33;;;10.52;;
50443;SDS011;36370;52.216;21.142;2022-10-16T13:45:35;17.42;;;10.73;;
50443;SDS011;36370;52.216;21.142;2022-10-16T13:49:37;16.90;;;10.02;;
50443;SDS011;36370;52.216;21.142;2022-10-16T13:53:39;15.88;;;10.25;;
50443;SDS011;36370;52.216;21.142;2022-10-16T13:57:42;18.80;;;12.40;;
50443;SDS011;36370;52.216;21.142;2022-10-16T14:01:44;15.77;;;9.77;;
50443;SDS011;36370;52.216;21.142;2022-10-16T14:05:47;16.70;;;9.02;;
50443;SDS011;36370;52.216;21.142;2022-10-16T14:09:52;16.98;;;10.20;;
50443;SDS011;36370;52.216;21.142;2022-10-16T14:13:56;12.52;;;9.55;;
50443;SDS011;36370;52.216;21.142;2022-10-16T14:17:58;16.60;;;10.00;;
50443;SDS011;36370;52.216;21.142;2022-10-16T14:22:00;13.18;;;8.82;;
50443;SDS011;36370;52.216;21.142;2022-10-16T14:30:18;15.80;;;10.17;;
50443;SDS011;36370;52.216;21.142;2022-10-16T14:34:30;11.18;;;9.52;;
50443;SDS011;36370;52.216;21.142;2022-10-16T14:38:34;12.63;;;9.50;;
50443;SDS011;36370;52.216;21.142;2022-10-16T14:42:37;13.43;;;10.05;;
50443;SDS011;36370;52.216;21.142;2022-10-16T14:46:42;18.25;;;10.73;;
50443;SDS011;36370;52.216;21.142;2022-10-16T14:50:46;17.08;;;10.85;;
50443;SDS011;36370;52.216;21.142;2022-10-16T14:54:48;17.35;;;11.02;;
50443;SDS011;36370;52.216;21.142;2022-10-16T14:58:51;18.98;;;10.70;;
50443;SDS011;36370;52.216;21.142;2022-10-16T15:02:53;17.35;;;11.25;;
50443;SDS011;36370;52.216;21.142;2022-10-16T15:06:55;15.77;;;10.90;;
50443;SDS011;36370;52.216;21.142;2022-10-16T15:10:57;15.82;;;12.05;;
50443;SDS011;36370;52.216;21.142;2022-10-16T15:14:59;17.20;;;11.27;;
50443;SDS011;36370;52.216;21.142;2022-10-16T15:19:01;16.73;;;11.60;;
50443;SDS011;36370;52.216;21.142;2022-10-16T15:23:03;15.48;;;11.23;;
50443;SDS011;36370;52.216;21.142;2022-10-16T15:27:08;15.52;;;11.27;;
50443;SDS011;36370;52.216;21.142;2022-10-16T15:31:10;16.45;;;11.52;;
50443;SDS011;36370;52.216;21.142;2022-10-16T15:35:12;15.07;;;11.77;;
50443;SDS011;36370;52.216;21.142;2022-10-16T15:39:18;18.95;;;12.02;;
50443;SDS011;36370;52.216;21.142;2022-10-16T15:43:21;18.73;;;13.05;;
50443;SDS011;36370;52.216;21.142;2022-10-16T15:47:23;16.85;;;12.32;;
50443;SDS011;36370;52.216;21.142;2022-10-16T15:51:25;18.50;;;13.10;;
50443;SDS011;36370;52.216;21.142;2022-10-16T15:55:34;16.77;;;11.80;;
50443;SDS011;36370;52.216;21.142;2022-10-16T15:59:37;18.88;;;12.65;;
50443;SDS011;36370;52.216;21.142;2022-10-16T16:03:39;17.75;;;12.88;;
50443;SDS011;36370;52.216;21.142;2022-10-16T16:07:41;21.95;;;13.57;;
50443;SDS011;36370;52.216;21.142;2022-10-16T16:11:43;18.10;;;14.18;;
50443;SDS011;36370;52.216;21.142;2022-10-16T16:15:45;22.60;;;16.10;;
50443;SDS011;36370;52.216;21.142;2022-10-16T16:19:47;26.33;;;15.63;;
50443;SDS011;36370;52.216;21.142;2022-10-16T16:23:49;26.63;;;16.10;;
50443;SDS011;36370;52.216;21.142;2022-10-16T16:27:50;23.38;;;16.13;;
50443;SDS011;36370;52.216;21.142;2022-10-16T16:31:52;28.23;;;18.75;;
50443;SDS011;36370;52.216;21.142;2022-10-16T16:35:58;31.25;;;17.85;;
50443;SDS011;36370;52.216;21.142;2022-10-16T16:40:02;26.23;;;17.00;;
50443;SDS011;36370;52.216;21.142;2022-10-16T16:44:05;24.50;;;16.33;;
50443;SDS011;36370;52.216;21.142;2022-10-16T16:48:09;23.67;;;16.00;;
50443;SDS011;36370;52.216;21.142;2022-10-16T16:52:10;23.90;;;16.73;;
50443;SDS011;36370;52.216;21.142;2022-10-16T16:56:13;25.98;;;16.90;;
50443;SDS011;36370;52.216;21.142;2022-10-16T17:00:15;26.73;;;15.55;;
50443;SDS011;36370;52.216;21.142;2022-10-16T17:04:17;23.95;;;17.55;;
50443;SDS011;36370;52.216;21.142;2022-10-16T17:08:20;27.80;;;17.02;;
50443;SDS011;36370;52.216;21.142;2022-10-16T17:12:22;26.77;;;17.42;;
50443;SDS011;36370;52.216;21.142;2022-10-16T17:16:25;28.92;;;18.58;;
50443;SDS011;36370;52.216;21.142;2022-10-16T17:20:30;27.27;;;18.13;;
50443;SDS011;36370;52.216;21.142;2022-10-16T17:24:31;28.70;;;17.95;;
50443;SDS011;36370;52.216;21.142;2022-10-16T17:28:33;28.40;;;19.98;;
50443;SDS011;36370;52.216;21.142;2022-10-16T17:32:35;31.95;;;21.15;;
50443;SDS011;36370;52.216;21.142;2022-10-16T17:36:37;30.85;;;19.45;;
50443;SDS011;36370;52.216;21.142;2022-10-16T17:40:44;28.38;;;19.65;;
50443;SDS011;36370;52.216;21.142;2022-10-16T17:44:45;30.80;;;20.75;;
50443;SDS011;36370;52.216;21.142;2022-10-16T17:48:48;32.40;;;24.50;;
50443;SDS011;36370;52.216;21.142;2022-10-16T17:52:53;34.75;;;22.63;;
50443;SDS011;36370;52.216;21.142;2022-10-16T17:56:55;33.65;;;22.35;;
50443;SDS011;36370;52.216;21.142;2022-10-16T18:00:57;30.13;;;19.15;;
50443;SDS011;36370;52.216;21.142;2022-10-16T18:04:58;32.20;;;22.75;;
50443;SDS011;36370;52.216;21.142;2022-10-16T18:09:01;34.85;;;22.40;;
50443;SDS011;36370;52.216;21.142;2022-10-16T18:13:04;35.03;;;22.35;;
50443;SDS011;36370;52.216;21.142;2022-10-16T18:17:06;32.00;;;22.15;;
50443;SDS011;36370;52.216;21.142;2022-10-16T18:21:08;39.70;;;24.67;;
50443;SDS011;36370;52.216;21.142;2022-10-16T18:25:11;40.38;;;26.73;;
50443;SDS011;36370;52.216;21.142;2022-10-16T18:29:13;47.05;;;27.88;;
50443;SDS011;36370;52.216;21.142;2022-10-16T18:33:15;45.97;;;29.95;;
50443;SDS011;36370;52.216;21.142;2022-10-16T18:37:17;45.85;;;30.02;;
50443;SDS011;36370;52.216;21.142;2022-10-16T18:41:21;49.95;;;29.80;;
50443;SDS011;36370;52.216;21.142;2022-10-16T18:45:23;45.38;;;29.75;;
50443;SDS011;36370;52.216;21.142;2022-10-16T18:49:25;43.35;;;27.73;;
50443;SDS011;36370;52.216;21.142;2022-10-16T18:53:27;41.78;;;27.92;;
50443;SDS011;36370;52.216;21.142;2022-10-16T18:57:33;46.10;;;28.30;;
50443;SDS011;36370;52.216;21.142;2022-10-16T19:01:36;42.17;;;27.38;;
50443;SDS011;36370;52.216;21.142;2022-10-16T19:05:43;39.40;;;26.38;;
50443;SDS011;36370;52.216;21.142;2022-10-16T19:09:48;42.53;;;25.27;;
50443;SDS011;36370;52.216;21.142;2022-10-16T19:13:50;39.00;;;23.70;;
50443;SDS011;36370;52.216;21.142;2022-10-16T19:17:52;35.10;;;24.75;;
50443;SDS011;36370;52.216;21.142;2022-10-16T19:21:55;37.53;;;25.15;;
50443;SDS011;36370;52.216;21.142;2022-10-16T19:26:12;42.95;;;25.17;;
50443;SDS011;36370;52.216;21.142;2022-10-16T19:30:17;39.80;;;24.00;;
50443;SDS011;36370;52.216;21.142;2022-10-16T19:34:19;38.53;;;24.95;;
50443;SDS011;36370;52.216;21.142;2022-10-16T19:38:21;40.80;;;23.92;;
50443;SDS011;36370;52.216;21.142;2022-10-16T19:42:23;39.40;;;26.55;;
50443;SDS011;36370;52.216;21.142;2022-10-16T19:46:25;39.45;;;25.42;;
50443;SDS011;36370;52.216;21.142;2022-10-16T19:50:27;33.53;;;22.73;;
50443;SDS011;36370;52.216;21.142;2022-10-16T19:54:29;33.08;;;21.98;;
50443;SDS011;36370;52.216;21.142;2022-10-16T19:58:31;37.55;;;26.05;;
50443;SDS011;36370;52.216;21.142;2022-10-16T20:02:33;39.33;;;25.42;;
50443;SDS011;36370;52.216;21.142;2022-10-16T20:06:36;41.15;;;26.17;;
50443;SDS011;36370;52.216;21.142;2022-10-16T20:10:38;39.58;;;25.10;;
50443;SDS011;36370;52.216;21.142;2022-10-16T20:14:39;36.15;;;25.42;;
50443;SDS011;36370;52.216;21.142;2022-10-16T20:18:42;38.05;;;24.27;;
50443;SDS011;36370;52.216;21.142;2022-10-16T20:22:44;49.83;;;31.35;;
50443;SDS011;36370;52.216;21.142;2022-10-16T20:26:45;41.42;;;26.52;;
50443;SDS011;36370;52.216;21.142;2022-10-16T20:30:48;40.15;;;28.55;;
50443;SDS011;36370;52.216;21.142;2022-10-16T20:34:50;46.90;;;28.67;;
50443;SDS011;36370;52.216;21.142;2022-10-16T20:38:52;37.63;;;26.83;;
50443;SDS011;36370;52.216;21.142;2022-10-16T20:42:54;43.85;;;27.55;;
50443;SDS011;36370;52.216;21.142;2022-10-16T20:46:56;37.15;;;25.73;;
50443;SDS011;36370;52.216;21.142;2022-10-16T20:50:58;40.17;;;27.55;;
50443;SDS011;36370;52.216;21.142;2022-10-16T20:55:00;43.42;;;28.75;;
50443;SDS011;36370;52.216;21.142;2022-10-16T20:59:02;36.97;;;23.95;;
50443;SDS011;36370;52.216;21.142;2022-10-16T21:03:05;40.70;;;25.05;;
50443;SDS011;36370;52.216;21.142;2022-10-16T21:07:06;38.08;;;24.98;;
50443;SDS011;36370;52.216;21.142;2022-10-16T21:11:12;45.45;;;28.38;;
50443;SDS011;36370;52.216;21.142;2022-10-16T21:15:21;47.95;;;27.55;;
50443;SDS011;36370;52.216;21.142;2022-10-16T21:19:24;43.78;;;27.70;;
50443;SDS011;36370;52.216;21.142;2022-10-16T21:23:25;44.15;;;27.80;;
50443;SDS011;36370;52.216;21.142;2022-10-16T21:27:27;45.72;;;30.83;;
50443;SDS011;36370;52.216;21.142;2022-10-16T21:31:29;47.13;;;29.80;;
50443;SDS011;36370;52.216;21.142;2022-10-16T21:35:32;51.53;;;31.95;;
50443;SDS011;36370;52.216;21.142;2022-10-16T21:39:34;54.30;;;32.75;;
50443;SDS011;36370;52.216;21.142;2022-10-16T21:43:36;45.45;;;29.85;;
50443;SDS011;36370;52.216;21.142;2022-10-16T21:47:38;46.85;;;28.02;;
50443;SDS011;36370;52.216;21.142;2022-10-16T21:51:41;48.78;;;31.17;;
50443;SDS011;36370;52.216;21.142;2022-10-16T21:55:45;40.67;;;27.25;;
50443;SDS011;36370;52.216;21.142;2022-10-16T21:59:48;38.58;;;26.85;;
50443;SDS011;36370;52.216;21.142;2022-10-16T22:03:50;45.17;;;30.15;;
50443;SDS011;36370;52.216;21.142;2022-10-16T22:07:52;39.50;;;27.02;;
50443;SDS011;36370;52.216;21.142;2022-10-16T22:11:53;39.75;;;27.30;;
50443;SDS011;36370;52.216;21.142;2022-10-16T22:15:55;35.65;;;23.05;;
50443;SDS011;36370;52.216;21.142;2022-10-16T22:19:57;37.95;;;24.85;;
50443;SDS011;36370;52.216;21.142;2022-10-16T22:23:59;44.67;;;27.88;;
50443;SDS011;36370;52.216;21.142;2022-10-16T22:28:01;44.80;;;29.45;;
50443;SDS011;36370;52.216;21.142;2022-10-16T22:32:03;39.40;;;25.25;;
50443;SDS011;36370;52.216;21.142;2022-10-16T22:36:05;42.95;;;29.05;;
50443;SDS011;36370;52.216;21.142;2022-10-16T22:40:09;38.53;;;25.23;;
50443;SDS011;36370;52.216;21.142;2022-10-16T22:44:11;42.90;;;27.75;;
50443;SDS011;36370;52.216;21.142;2022-10-16T22:48:13;47.47;;;30.35;;
50443;SDS011;36370;52.216;21.142;2022-10-16T22:52:15;33.20;;;23.33;;
50443;SDS011;36370;52.216;21.142;2022-10-16T22:56:19;36.50;;;24.67;;
50443;SDS011;36370;52.216;21.142;2022-10-16T23:00:22;39.22;;;26.25;;
50443;SDS011;36370;52.216;21.142;2022-10-16T23:04:24;43.72;;;27.52;;
50443;SDS011;36370;52.216;21.142;2022-10-16T23:08:25;45.75;;;28.35;;
50443;SDS011;36370;52.216;21.142;2022-10-16T23:12:27;46.80;;;28.10;;
50443;SDS011;36370;52.216;21.142;2022-10-16T23:16:30;37.10;;;24.42;;
50443;SDS011;36370;52.216;21.142;2022-10-16T23:20:31;49.53;;;28.80;;
50443;SDS011;36370;52.216;21.142;2022-10-16T23:24:33;32.70;;;22.40;;
50443;SDS011;36370;52.216;21.142;2022-10-16T23:28:35;33.90;;;22.95;;
50443;SDS011;36370;52.216;21.142;2022-10-16T23:32:39;42.22;;;26.85;;
50443;SDS011;36370;52.216;21.142;2022-10-16T23:36:41;40.35;;;25.38;;
50443;SDS011;36370;52.216;21.142;2022-10-16T23:40:45;37.15;;;24.05;;
50443;SDS011;36370;52.216;21.142;2022-10-16T23:44:46;40.95;;;24.42;;
50443;SDS011;36370;52.216;21.142;2022-10-16T23:48:48;35.85;;;24.52;;
50443;SDS011;36370;52.216;21.142;2022-10-16T23:52:50;47.58;;;31.42;;
50443;SDS011;36370;52.216;21.142;2022-10-16T23:56:52;35.25;;;22.30;;
